WSSSWMKJ

Guest
Details From WSSS - Singapore Changi Intl
To WMKJ - Johor Bahru Sultan Ismail
Flight Number -
Tags Generated
Created
Modified
Stats Distance 26 nm / 49 km
Max Altitude 0 ft / 0 m
Waypoints 2
Social Downloads 8
Likes 0
Share VATSIM

Download

Looking for another format? Having issues loading an existing format? Contact us
Advertisement - Login to hide

Notes

Generated

Route

WSSS WMKJ

ID Type Via Altitude Latitude Longitude Leg Dist Tot Dist Heading (true) Name
O WSSS APT - 0 ft / 0 m 1.34897˚ 103.97750˚ - 0 nm - -
O WMKJ APT - 0 ft / 0 m 1.65548˚ 103.66444˚ 26 nm 26 nm 314° / 314° -

Altitude Profile

Advertisement - Login to hide

WSSS

Details ICAO WSSS (SIN)
Name Singapore Changi Intl. Airport
Region Singapore
Timezone Unknown (UTC+0.0)
Stats Elevation 22 ft / 7 m (AMSL)
Location 1.351917° 103.995603°
Runways 3
Magnetic Variation 0.229° E

METAR

WSSS 112030Z VRB02KT 7000 FEW016 SCT050 BKN150 25/24 Q1011 NOSIG

Decode

TAF

TAF WSSS 111100Z 1112/1218 34008KT 9999 FEW018CB SCT020 TEMPO 1206/1210 3000 TSRA FEW012CB BKN015

Decode

Departure Runways

ID Width Length Bearing (true) Bearing (mag) Surface Threshold Offset Overrun Length
02C 164 ft / 50 m 13,619 ft / 4,151 m 22.80° 22.57° Asphalt 200 ft / 61 m 0 ft / 0 m
02L 164 ft / 50 m 14,308 ft / 4,361 m 22.69° 22.46° Asphalt 200 ft / 61 m 0 ft / 0 m
02R 164 ft / 50 m 10,072 ft / 3,070 m 22.74° 22.51° Asphalt 600 ft / 183 m 0 ft / 0 m
20C 164 ft / 50 m 13,619 ft / 4,151 m 202.80° 202.57° Asphalt 200 ft / 61 m 0 ft / 0 m
20L 164 ft / 50 m 10,072 ft / 3,070 m 202.74° 202.51° Asphalt 499 ft / 152 m 0 ft / 0 m
20R 164 ft / 50 m 14,308 ft / 4,361 m 202.69° 202.46° Asphalt 3,301 ft / 1,006 m 0 ft / 0 m

WMKJ

Details ICAO WMKJ (JHB)
Name Johor Bahru Sultan Ismail
Region Malaysia (Peninsular Malaysia)
Timezone Asia/Kuala_Lumpur (UTC+8.0)
Stats Elevation 135 ft / 41 m (AMSL)
Location 1.641307° 103.669618°
Runways 1
Magnetic Variation 0.194° E

METAR

WMKJ 112000Z 00000KT 6000 FEW010 BKN270 24/24 Q1010

Decode

TAF

TAF TAF WMKJ 111100Z 1112/1212 02008KT 9999 FEW017CB BKN280 TEMPO 1207/1211 3000 TSRA FEW015CB SCT018

Decode

Destination Runways

ID Width Length Bearing (true) Bearing (mag) Surface Threshold Offset Overrun Length
16 150 ft / 46 m 11,014 ft / 3,357 m 159.95° 159.76° Asphalt 0 ft / 0 m 200 ft / 61 m
34 150 ft / 46 m 11,014 ft / 3,357 m 339.95° 339.76° Asphalt 0 ft / 0 m 200 ft / 61 m

Approach Navaids

Runway Type Ident Frequency Range Bearing (true) Bearing (mag) Slope Elevation
16 Localiser IJB 109.90 MHz 18 nm / 33 km 159.86° 159.66° - 133 ft / 41 m (AMSL)
16 Glidescope IJB 109.90 MHz 10 nm / 19 km 159.95° 159.75° 3.00° 135 ft / 41 m (AMSL)
16 DME IJB 109.90 MHz 18 nm / 33 km - - - 135 ft / 41 m (AMSL)

Popular Alternatives